Portada
METAR-TAF:

METAR-TAF

Aeropuertos :

Aeropuerto de Copenhague-Kastrup

Copenhague, Dinamarca

latitud: 55-37N, longitud: 012-39E, altitud: 5 m

Observación

El informe se hizo hace 10 minutos, a las 17:20 UTC
Viento 15 kt del oeste-suroeste
Temperatura 15°C
Humedad 63%
Presión 1023 hPa
Visibilidad 10 km o más

METAR: EKCH 061720Z AUTO 24015KT 9999 BKN047/// 15/08 Q1023 NOSIG

Hora: 19:30 (17:30 UTC)

Pronóstico

El informe se hizo hace 6 horas y 25 minutos, a las 11:05 UTC
Pronóstico válido del 06 a las 12 UTC al 07 a las 12 UTC
Viento 18 kt del oeste-suroeste
Visibilidad 10 km o más
Nubes dispersas a una altura de 3000 ft
Temporalmente
del 06 a las 12 UTC al 06 a las 16 UTC
Viento 20 kt del oeste con ráfagas de 30 kt

TAF: EKCH 061105Z 0612/0712 25018KT 9999 SCT030 TEMPO 0612/0616 26020G30KT

Observaciones y pronósticos meteorológicos de más de 4000 aeropuertos (mensajes METAR y TAF).

Los puntos amarillos y rojos representan las estaciones disponibles.

Ponga el ratón en el punto deseado para ver el nombre de la estación.

Haga clic para ver las observaciones y los pronósticos meteorológicos.

Para cambiar el mapa : haga clic en los botones verdes con una cruz de color negro para hacer un zoom, en el botón verde con un guión para alejar o en las flechas verdes para mapas adyacentes.


METAR-TAF: